Valdez Pioneer Field
PAVD : rendu visible

Aérodrome :











RETROUVEZ-NOUS SUR...

 
LOGIN :

S'inscrire | Disclaimer

   EN    FR    IT 

 









Légende :    VFR   VFR Marginal   IFR   IFR Intensif   IFR Très Intensif
Visi : 
Plafond : 
>= 8 km
>= 3000ft
5 à 8 km
1000 à 3000 ft
1500m à 5 km
500 à 1000 ft
800 à 1500m
200 à 500 ft
< 800m
< 200 ft
Symboles :   Orages  Brouillard  Fortes neiges  Fortes précipitations  Vent > 20 kt






- Altitude de l'aérodrome : 121 ft
- Code IATA : VDZ


PAVD - Valdez Pioneer Field

DERNIER METAR :
  • 121004Z AUTO 00000KT 4SM RA BR BKN002 OVC011 12/12 A2994 RMK AO2 PNO $

METARs EXPIRÉS :
  • 120956Z AUTO 24003KT 5SM RA BR SCT002 OVC011 12/12 A2994 RMK AO2 RAE0858B19 SLP136 T01170117 PNO $
  • 120943Z AUTO 00000KT 8SM -RA SCT002 OVC011 12/11 A2994 RMK AO2 RAE0858B19 P0000
  • 120913Z AUTO 00000KT 5SM BR BKN002 OVC009 12/11 A2994 RMK AO2 RAE0858 P0000
  • 120856Z AUTO 00000KT 10SM -RA BKN007 OVC031 12/11 A2993 RMK AO2 RAE21B44 CIG 006V012 SLP133 P0000 60000 T01170111 52007
  • 120846Z AUTO 00000KT 10SM -RA BKN007 BKN012 OVC047 12/12 A2994 RMK AO2 RAE21B44 P0000
  • 120809Z AUTO 07004KT 7SM -RA FEW002 BKN044 11/11 A2993 RMK AO2 P0000
  • 120801Z AUTO 07005KT 7SM -RA FEW002 SCT022 BKN027 12/11 A2993 RMK AO2 P0000

TAF PAVD
Valide du 12 à 06h jusqu'au 13 à 06h UTC


120544Z 1206/1306 VRB04KT 5SM -SHRA SCT005 BKN020
FM121000 VRB03KT P6SM VCFG SCT002 OVC010
FM121800 25006KT P6SM SCT010 BKN025 AMD LTD TO CLD VIS AND WIND
FIR PAZA / Amérique du Nord



MET'MAP, la Météo Aéronautique d'un coup d'oeil ! - Copyright ORBIFLY Décembre 2007 - Disclaimer

ORBIFLY MET'MAP TEAM :

Programmation & Développement : Alexandra Zaïnal
Sur une idée originale de : Baudouin d'Aumeries
Assistance à la programmation : Marc-Olivier Méhu
Soutien technique & logistique : Manuel Goepfert

Contact : metmap@orbifly.com




SOURCES & CREDITS :

   NOAA       Earth
Advisory